Terminal Aerodrome Forecast
Issued by NWS

Home | Current Version | Previous Version | Text Only | Print | Product List | Glossary On
Versions: 1 2 3 4 5 6 7 8 9 10 11 12 13 14 15 16 17 18 19 20 21 22 23 24 25 26 27 28 29 30
992
FTUS41 KOKX 032140 AAB
TAFGON
TAF AMD
KGON 032140Z 0322/0418 10008KT P6SM SCT005 BKN015
     FM040000 05005KT 6SM BR SCT005 BKN015
     FM040300 04004KT 6SM BR BKN030
     FM041200 07008KT P6SM BKN030
     FM041600 08011KT P6SM BKN030=

USA.gov is the U.S. government's official web portal to all federal, state and local government web resources and services.